»·PEaware :: HADAI KSBP-KLAS

HADAI :: KSBP-KLAS

FLIGHT INFORMATION

Flight Status: Arrived
Operator: Unknown
More flights by this operator :: More flights under this callsign
Pilot: Anonymous 30101 (30101)
Aircraft: SOCATA TBM-900
(TBM9)
More flights by this aircraft type
Origin: KSBP San Luis Co Regl
United States
Destination: KLAS McCarran Intl
United States
More flights between these airports :: More routes between these airports
Route: +DERBB MARIC PMD DAG CRESO4
File this flight plan on PilotEdge
Remarks:
Altitude:
(Current/Filed)
26,000ft
Speed:
(Current/Filed)
280kts
Departed: 31-Jul-20 10:25 AM
Arrived: 31-Jul-20 11:39 AM
Distance/Time
Traveled:
272nm/1:13
Distance/Time
To Go:
Arrived

Flight Plot

Page will automatically refresh every two minutes.


Map Options




Map Legend


Flown Route
Filed Route
Departure Airport
Arrival Airport
Navaid (VOR, NDB)
Fix

Horizontal Profiles

Position Reports

Time Latitude Longitude Heading Altitude Ground
Speed
31-Jul-20 10:04 35.238239 -120.639984 309 215ft 0kts
31-Jul-20 10:05 35.238239 -120.639984 309 215ft 0kts
31-Jul-20 10:06 35.238239 -120.639984 309 215ft 0kts
31-Jul-20 10:07 35.238239 -120.639984 309 215ft 0kts
31-Jul-20 10:08 35.238239 -120.639984 309 215ft 0kts
31-Jul-20 10:09 35.238239 -120.639984 309 215ft 0kts
31-Jul-20 10:10 35.238239 -120.639984 309 215ft 0kts
31-Jul-20 10:11 35.238239 -120.639984 309 215ft 0kts
31-Jul-20 10:12 35.238239 -120.639984 309 215ft 0kts
31-Jul-20 10:13 35.238239 -120.639984 309 215ft 0kts
31-Jul-20 10:14 35.238239 -120.639984 309 215ft 0kts
31-Jul-20 10:15 35.238239 -120.639984 309 215ft 0kts
31-Jul-20 10:16 35.238239 -120.639984 309 215ft 0kts
31-Jul-20 10:17 35.238239 -120.639984 309 215ft 0kts
31-Jul-20 10:18 35.238239 -120.639984 309 215ft 0kts
31-Jul-20 10:19 35.238239 -120.639984 309 215ft 0kts
31-Jul-20 10:20 35.237271 -120.638980 124 215ft 12kts
31-Jul-20 10:21 35.234663 -120.634403 124 215ft 17kts
31-Jul-20 10:22 35.233304 -120.632304 180 215ft 0kts
31-Jul-20 10:23 35.233207 -120.632333 204 215ft 4kts
31-Jul-20 10:24 35.237713 -120.641984 302 322ft 107kts
31-Jul-20 10:25 35.255594 -120.670981 302 2330ft 117kts
31-Jul-20 10:26 35.273697 -120.702520 302 4469ft 118kts
31-Jul-20 10:27 35.300590 -120.696612 80 6250ft 154kts
31-Jul-20 10:28 35.289804 -120.643299 112 7791ft 172kts
31-Jul-20 10:29 35.273436 -120.587121 112 9312ft 180kts
31-Jul-20 10:30 35.256402 -120.527992 112 11211ft 183kts
31-Jul-20 10:31 35.242729 -120.471662 109 13472ft 164kts
31-Jul-20 10:32 35.231355 -120.422984 112 15633ft 135kts
31-Jul-20 10:33 35.219267 -120.374813 113 17179ft 167kts
31-Jul-20 10:34 35.204341 -120.313901 111 18842ft 196kts
31-Jul-20 10:35 35.189573 -120.252144 112 21074ft 176kts
31-Jul-20 10:36 35.176757 -120.198757 113 22992ft 160kts
31-Jul-20 10:37 35.162590 -120.142093 114 24646ft 188kts
31-Jul-20 10:38 35.146683 -120.077825 113 26272ft 207kts
31-Jul-20 10:39 35.128912 -120.005658 113 27086ft 254kts
31-Jul-20 10:40 35.106585 -119.914590 111 27072ft 298kts
31-Jul-20 10:41 35.081615 -119.814726 112 27049ft 314kts
31-Jul-20 10:42 35.055795 -119.711689 110 27032ft 320kts
31-Jul-20 10:43 35.029751 -119.607473 110 27008ft 322kts
31-Jul-20 10:44 35.003475 -119.502581 110 26973ft 323kts
31-Jul-20 10:45 34.977227 -119.397755 109 26962ft 323kts
31-Jul-20 10:46 34.951419 -119.295244 111 27041ft 320kts
31-Jul-20 10:47 34.925014 -119.191122 110 27034ft 322kts
31-Jul-20 10:48 34.898527 -119.087248 110 27029ft 322kts
31-Jul-20 10:49 34.872104 -118.983887 110 27078ft 322kts
31-Jul-20 10:50 34.845460 -118.880153 109 27148ft 322kts
31-Jul-20 10:51 34.818538 -118.775755 109 27214ft 322kts
31-Jul-20 10:52 34.791139 -118.671481 110 27180ft 325kts
31-Jul-20 10:53 34.763566 -118.566273 108 27122ft 327kts
31-Jul-20 10:54 34.736025 -118.460840 109 27076ft 327kts
31-Jul-20 10:55 34.708497 -118.355740 109 27060ft 326kts
31-Jul-20 10:56 34.681253 -118.252151 109 27132ft 324kts
31-Jul-20 10:57 34.653730 -118.147868 109 27130ft 324kts
31-Jul-20 10:58 34.629051 -118.042424 93 27118ft 327kts
31-Jul-20 10:59 34.662494 -117.942490 49 27091ft 326kts
31-Jul-20 11:00 34.696646 -117.840914 77 27070ft 329kts
31-Jul-20 11:01 34.718853 -117.733457 78 27074ft 328kts
31-Jul-20 11:02 34.735848 -117.624586 80 27084ft 327kts
31-Jul-20 11:03 34.754308 -117.516716 72 27086ft 326kts
31-Jul-20 11:04 34.778564 -117.410094 74 27076ft 326kts
31-Jul-20 11:05 34.802518 -117.304022 74 27137ft 324kts
31-Jul-20 11:06 34.826309 -117.197761 74 27108ft 326kts
31-Jul-20 11:07 34.850132 -117.091108 74 27072ft 326kts
31-Jul-20 11:08 34.873023 -116.988156 73 25708ft 304kts
31-Jul-20 11:09 34.894545 -116.891103 73 24044ft 298kts
31-Jul-20 11:10 34.916601 -116.790347 73 24032ft 314kts
31-Jul-20 11:11 34.939454 -116.686376 73 24021ft 320kts
31-Jul-20 11:12 34.962215 -116.581193 74 24011ft 323kts
31-Jul-20 11:13 35.008101 -116.489492 47 23244ft 315kts
31-Jul-20 11:14 35.053331 -116.399207 66 21546ft 309kts
31-Jul-20 11:15 35.086965 -116.305242 55 19904ft 297kts
31-Jul-20 11:16 35.125514 -116.217955 64 18606ft 285kts
31-Jul-20 11:17 35.160452 -116.132306 59 17366ft 280kts
31-Jul-20 11:18 35.196920 -116.048782 63 15509ft 276kts
31-Jul-20 11:19 35.232438 -115.966717 62 14331ft 284kts
31-Jul-20 11:20 35.271565 -115.876337 62 13595ft 310kts
31-Jul-20 11:21 35.313016 -115.782309 59 12795ft 316kts
31-Jul-20 11:22 35.374988 -115.705845 45 11960ft 317kts
31-Jul-20 11:23 35.429328 -115.629344 45 10298ft 275kts
31-Jul-20 11:24 35.480356 -115.560873 45 10014ft 276kts
31-Jul-20 11:25 35.533784 -115.492197 39 10006ft 279kts
31-Jul-20 11:26 35.590643 -115.426708 41 9998ft 280kts
31-Jul-20 11:27 35.642922 -115.355276 48 9988ft 281kts
31-Jul-20 11:28 35.691588 -115.283145 46 8867ft 259kts
31-Jul-20 11:30 35.736858 -115.218393 47 7383ft 243kts
31-Jul-20 11:31 35.786366 -115.171314 8 6930ft 237kts
31-Jul-20 11:32 35.856570 -115.175235 351 5729ft 245kts
31-Jul-20 11:33 35.918119 -115.185376 351 5488ft 204kts
31-Jul-20 11:34 35.972000 -115.194172 351 5489ft 186kts
31-Jul-20 11:35 36.019186 -115.202336 350 4594ft 154kts
31-Jul-20 11:36 36.052778 -115.205863 17 3259ft 100kts
31-Jul-20 11:37 36.073797 -115.185477 98 2586ft 125kts
31-Jul-20 11:38 36.073649 -115.149111 89 2112ft 42kts
31-Jul-20 11:39 36.073668 -115.142842 87 2089ft 18kts
31-Jul-20 11:40 36.074730 -115.138553 57 2075ft 0kts
31-Jul-20 11:41 36.074770 -115.138477 57 2074ft 5kts
31-Jul-20 11:42 36.075029 -115.141141 270 2082ft 16kts
31-Jul-20 11:43 36.075003 -115.148322 270 2106ft 24kts
31-Jul-20 11:43 36.075011 -115.154012 269 2128ft 14kts
31-Jul-20 11:45 36.075004 -115.158288 269 2145ft 8kts
31-Jul-20 11:46 36.075009 -115.162981 270 2161ft 18kts
31-Jul-20 11:46 36.074795 -115.167612 259 2176ft 13kts
31-Jul-20 11:47 36.077013 -115.171090 352 2180ft 18kts
31-Jul-20 11:49 36.083250 -115.168229 24 2158ft 18kts
31-Jul-20 11:50 36.087614 -115.165727 24 2140ft 16kts
31-Jul-20 11:50 36.091203 -115.163679 24 2122ft 17kts
31-Jul-20 11:51 36.095609 -115.161156 25 2103ft 17kts
31-Jul-20 11:53 36.098783 -115.161437 236 2101ft 9kts

Navigation Log

Ident Type
Flight plan parsing failed, navigation log unavailable